createdAt,value
2024-02-03T00:02:28.484Z,3.60
2024-02-03T00:05:13.997Z,3.80
2024-02-03T00:07:59.306Z,4.00
2024-02-03T00:10:44.914Z,3.70
2024-02-03T00:13:30.540Z,3.50
2024-02-03T00:16:16.327Z,3.47
2024-02-03T00:19:02.232Z,3.70
2024-02-03T00:21:47.860Z,4.13
2024-02-03T00:24:33.312Z,4.13
2024-02-03T00:27:19.057Z,3.47
2024-02-03T00:30:06.046Z,3.53
2024-02-03T00:32:51.618Z,4.20
2024-02-03T00:35:37.201Z,4.10
2024-02-03T00:38:23.201Z,3.70
2024-02-03T00:41:08.653Z,3.90
2024-02-03T00:43:54.275Z,3.60
2024-02-03T00:46:39.950Z,3.60
2024-02-03T00:49:25.442Z,3.13
2024-02-03T00:52:11.440Z,3.60
2024-02-03T00:54:56.997Z,3.77
2024-02-03T00:57:42.731Z,4.00
2024-02-03T01:00:28.958Z,3.63
2024-02-03T01:03:15.368Z,4.00
2024-02-03T01:06:01.133Z,3.43
2024-02-03T01:08:48.882Z,3.80
2024-02-03T01:11:35.763Z,3.30
2024-02-03T01:14:21.082Z,3.60
2024-02-03T01:17:06.889Z,3.40
2024-02-03T01:19:52.735Z,4.13
2024-02-03T01:22:38.119Z,3.90
2024-02-03T01:25:23.504Z,4.37
2024-02-03T01:28:09.011Z,3.83
2024-02-03T01:30:55.115Z,4.73
2024-02-03T01:33:40.706Z,4.27
2024-02-03T01:36:26.229Z,4.87
2024-02-03T01:39:12.043Z,4.53
2024-02-03T01:41:57.593Z,4.13
2024-02-03T01:44:43.723Z,4.40
2024-02-03T01:47:29.084Z,4.60
2024-02-03T01:50:14.695Z,3.97
2024-02-03T01:53:01.213Z,4.03
2024-02-03T01:55:49.084Z,3.67
2024-02-03T01:58:34.793Z,3.57
2024-02-03T02:01:20.408Z,4.07
2024-02-03T02:04:06.256Z,3.80
2024-02-03T02:06:52.008Z,3.53
2024-02-03T02:09:37.590Z,4.03
2024-02-03T02:12:23.310Z,4.80
2024-02-03T02:15:09.302Z,5.00
2024-02-03T02:18:01.982Z,5.83
2024-02-03T02:20:47.183Z,6.03
2024-02-03T02:23:32.762Z,5.73
2024-02-03T02:26:18.371Z,6.23
2024-02-03T02:29:03.846Z,6.70
2024-02-03T02:31:49.352Z,6.10
2024-02-03T02:34:35.035Z,6.20
2024-02-03T02:37:20.658Z,5.90
2024-02-03T02:40:06.739Z,5.17
2024-02-03T02:42:52.147Z,4.80
2024-02-03T02:45:37.861Z,4.97
2024-02-03T02:48:23.550Z,5.23
2024-02-03T02:51:09.246Z,4.47
2024-02-03T02:53:54.490Z,4.90
2024-02-03T02:56:40.291Z,4.47
2024-02-03T02:59:25.732Z,4.30
2024-02-03T03:02:11.032Z,4.13
2024-02-03T03:04:56.840Z,3.70
2024-02-03T03:07:42.655Z,4.10
2024-02-03T03:10:28.053Z,3.60
2024-02-03T03:13:13.793Z,3.60
2024-02-03T03:15:59.816Z,3.90
2024-02-03T03:18:45.707Z,3.83
2024-02-03T03:21:31.613Z,3.90
2024-02-03T03:24:17.137Z,4.10
2024-02-03T03:27:02.641Z,4.40
2024-02-03T03:29:49.096Z,3.90
2024-02-03T03:32:35.046Z,3.43
2024-02-03T03:35:20.379Z,3.67
2024-02-03T03:38:08.029Z,4.40
2024-02-03T03:40:53.433Z,3.43
2024-02-03T03:43:39.580Z,4.00
2024-02-03T03:46:24.830Z,3.77
2024-02-03T03:49:10.597Z,3.83
2024-02-03T03:51:56.124Z,3.40
2024-02-03T03:54:43.460Z,4.10
2024-02-03T03:57:30.030Z,3.37
2024-02-03T04:00:16.083Z,3.50
2024-02-03T04:03:01.799Z,3.70
2024-02-03T04:05:47.539Z,3.60
2024-02-03T04:08:35.111Z,2.83
2024-02-03T04:11:20.444Z,3.00
2024-02-03T04:14:07.444Z,2.80
2024-02-03T04:16:53.063Z,2.80
2024-02-03T04:19:39.003Z,3.17
2024-02-03T04:22:24.506Z,2.80
2024-02-03T04:25:10.500Z,2.47
2024-02-03T04:27:55.915Z,2.37
2024-02-03T04:30:41.625Z,2.90
2024-02-03T04:33:27.223Z,3.00
2024-02-03T04:36:12.881Z,3.27
2024-02-03T04:38:58.481Z,2.90
2024-02-03T04:41:44.117Z,3.00
2024-02-03T04:44:29.887Z,2.97
2024-02-03T04:47:15.371Z,2.80
2024-02-03T04:50:02.056Z,3.13
2024-02-03T04:52:48.769Z,2.90
2024-02-03T04:55:34.099Z,2.57
2024-02-03T04:58:20.256Z,2.50
2024-02-03T05:01:06.496Z,2.50
2024-02-03T05:03:52.295Z,2.13
2024-02-03T05:06:38.047Z,2.73
2024-02-03T05:09:23.730Z,2.50
2024-02-03T05:12:09.627Z,2.63
2024-02-03T05:14:54.855Z,2.00
2024-02-03T05:17:40.767Z,2.30
2024-02-03T05:20:26.046Z,3.00
2024-02-03T05:23:11.862Z,2.87
2024-02-03T05:25:57.367Z,2.50
2024-02-03T05:28:43.178Z,2.60
2024-02-03T05:31:28.878Z,2.70
2024-02-03T05:34:14.515Z,2.43
2024-02-03T05:37:00.300Z,2.70
2024-02-03T05:39:46.076Z,2.50
2024-02-03T05:42:31.955Z,2.30
2024-02-03T05:45:18.437Z,2.70
2024-02-03T05:48:04.141Z,2.93
2024-02-03T05:50:49.370Z,2.20
2024-02-03T05:53:36.839Z,2.57
2024-02-03T05:56:22.121Z,2.90
2024-02-03T05:59:21.900Z,2.53
2024-02-03T06:02:13.711Z,3.07
2024-02-03T06:04:59.119Z,2.77
2024-02-03T06:07:45.300Z,2.30
2024-02-03T06:10:30.705Z,2.10
2024-02-03T06:13:16.645Z,2.67
2024-02-03T06:16:03.734Z,2.67
2024-02-03T06:18:49.110Z,2.83
2024-02-03T06:21:34.862Z,2.80
2024-02-03T06:24:20.628Z,2.70
2024-02-03T06:27:06.679Z,2.87
2024-02-03T06:29:52.211Z,2.93
2024-02-03T06:32:38.543Z,2.90
2024-02-03T06:35:24.171Z,2.90
2024-02-03T06:38:11.526Z,2.70
2024-02-03T06:40:57.910Z,2.60
2024-02-03T06:43:43.369Z,2.50
2024-02-03T06:46:28.990Z,2.67
2024-02-03T06:49:14.452Z,2.77
2024-02-03T06:52:00.264Z,2.83
2024-02-03T06:54:46.165Z,2.87
2024-02-03T06:57:31.923Z,2.60
2024-02-03T07:00:17.932Z,3.60
2024-02-03T07:03:03.336Z,3.17
2024-02-03T07:05:48.801Z,3.70
2024-02-03T07:08:34.224Z,3.80
2024-02-03T07:11:19.720Z,3.73
2024-02-03T07:14:05.273Z,3.80
2024-02-03T07:16:50.952Z,4.00
2024-02-03T07:19:36.915Z,3.97
2024-02-03T07:22:22.400Z,2.73
2024-02-03T07:25:08.496Z,2.97
2024-02-03T07:27:54.108Z,3.17
2024-02-03T07:30:39.682Z,3.07
2024-02-03T07:33:25.447Z,3.07
2024-02-03T07:36:10.966Z,3.53
2024-02-03T07:38:58.875Z,3.50
2024-02-03T07:41:44.132Z,3.50
2024-02-03T07:44:29.869Z,3.57
2024-02-03T07:47:15.776Z,3.23
2024-02-03T07:50:01.303Z,3.90
2024-02-03T07:52:46.799Z,3.00
2024-02-03T07:55:32.390Z,3.73
2024-02-03T07:58:17.867Z,3.37
2024-02-03T08:01:03.409Z,3.37
2024-02-03T08:03:49.773Z,3.40
2024-02-03T08:06:35.431Z,3.47
2024-02-03T08:09:20.804Z,3.33
2024-02-03T08:12:06.740Z,3.20
2024-02-03T08:14:52.280Z,3.70
2024-02-03T08:17:38.870Z,3.57
2024-02-03T08:20:24.770Z,3.30
2024-02-03T08:23:10.161Z,2.77
2024-02-03T08:25:56.623Z,3.17
2024-02-03T08:28:42.330Z,2.87
2024-02-03T08:31:27.924Z,2.87
2024-02-03T08:34:13.648Z,3.00
2024-02-03T08:36:59.448Z,2.63
2024-02-03T08:39:47.765Z,2.70
2024-02-03T08:42:33.444Z,2.73
2024-02-03T08:45:19.140Z,3.07
2024-02-03T08:48:05.317Z,2.87
2024-02-03T08:50:50.757Z,2.87
2024-02-03T08:53:36.573Z,3.10
2024-02-03T08:56:22.496Z,2.87
2024-02-03T08:59:08.481Z,3.00
2024-02-03T09:01:54.195Z,2.97
2024-02-03T09:04:39.815Z,2.93
2024-02-03T09:07:25.667Z,2.83
2024-02-03T09:10:11.415Z,2.47
2024-02-03T09:12:57.121Z,2.77
2024-02-03T09:15:42.901Z,2.50
2024-02-03T09:18:28.690Z,2.70
2024-02-03T09:21:15.671Z,2.60
2024-02-03T09:24:03.081Z,2.50
2024-02-03T09:26:48.541Z,2.80
2024-02-03T09:29:34.037Z,2.50
2024-02-03T09:32:19.756Z,2.70
2024-02-03T09:35:05.985Z,2.80
2024-02-03T09:37:51.872Z,2.60
2024-02-03T09:40:37.256Z,2.30
2024-02-03T09:43:26.565Z,2.50
2024-02-03T09:46:12.423Z,2.30
2024-02-03T09:49:08.190Z,2.67
2024-02-03T09:51:54.186Z,2.40
2024-02-03T09:54:39.853Z,2.30
2024-02-03T09:57:35.142Z,2.33
2024-02-03T10:00:23.185Z,2.83
2024-02-03T10:03:19.819Z,2.97
2024-02-03T10:06:06.552Z,2.90
2024-02-03T10:08:55.604Z,2.60
2024-02-03T10:11:42.797Z,2.67
2024-02-03T10:14:29.534Z,2.30
2024-02-03T10:17:24.790Z,2.37
2024-02-03T10:20:12.893Z,2.43
2024-02-03T10:22:58.402Z,2.13
2024-02-03T10:25:45.368Z,2.25
2024-02-03T10:28:30.698Z,2.30
2024-02-03T10:31:16.275Z,2.40
2024-02-03T10:34:02.576Z,2.25
2024-02-03T10:36:50.447Z,2.13
2024-02-03T10:39:36.411Z,2.17
2024-02-03T10:42:24.929Z,2.30
2024-02-03T10:45:13.165Z,2.10
2024-02-03T10:48:04.895Z,1.90
2024-02-03T10:50:55.433Z,1.90
2024-02-03T10:53:50.803Z,1.80
2024-02-03T10:56:39.130Z,1.65
2024-02-03T10:59:24.825Z,2.00
2024-02-03T11:02:20.146Z,1.92
2024-02-03T11:05:10.133Z,1.95
2024-02-03T11:07:56.125Z,2.00
2024-02-03T11:10:42.485Z,1.90
2024-02-03T11:13:28.590Z,2.25
2024-02-03T11:16:13.972Z,3.10
2024-02-03T11:19:00.419Z,2.95
2024-02-03T11:21:46.995Z,2.30
2024-02-03T11:24:34.532Z,2.03
2024-02-03T11:27:20.352Z,1.52
2024-02-03T11:30:06.915Z,1.45
2024-02-03T11:32:56.893Z,1.55
2024-02-03T11:35:44.706Z,1.80
2024-02-03T11:38:30.085Z,1.90
2024-02-03T11:41:16.988Z,1.40
2024-02-03T11:44:02.666Z,1.85
2024-02-03T11:46:49.011Z,1.70
2024-02-03T11:49:35.128Z,1.95
2024-02-03T11:52:24.730Z,1.77
2024-02-03T11:55:11.871Z,1.52
2024-02-03T11:57:57.687Z,1.90
2024-02-03T12:00:43.338Z,1.60
2024-02-03T12:03:29.594Z,1.60
2024-02-03T12:06:15.514Z,1.63
2024-02-03T12:09:00.743Z,1.50
2024-02-03T12:11:50.983Z,1.80
2024-02-03T12:14:37.231Z,1.85
2024-02-03T12:17:22.706Z,1.90
2024-02-03T12:20:24.979Z,2.00
2024-02-03T12:23:14.876Z,1.92
2024-02-03T12:26:04.498Z,1.93
2024-02-03T12:28:50.039Z,2.05
2024-02-03T12:31:35.559Z,1.60
2024-02-03T12:34:21.191Z,2.38
2024-02-03T12:37:06.554Z,1.70
2024-02-03T12:39:52.224Z,2.00
2024-02-03T12:42:38.581Z,1.75
2024-02-03T12:45:24.457Z,1.70
2024-02-03T12:48:10.111Z,1.70
2024-02-03T12:50:57.563Z,1.70
2024-02-03T12:53:43.370Z,1.73
2024-02-03T12:56:29.654Z,1.85
2024-02-03T12:59:15.528Z,1.80
2024-02-03T13:02:03.657Z,1.60
2024-02-03T13:04:49.243Z,1.80
2024-02-03T13:07:35.065Z,1.80
2024-02-03T13:10:20.949Z,2.47
2024-02-03T13:13:06.453Z,1.92
2024-02-03T13:15:52.199Z,2.20
2024-02-03T13:18:37.717Z,1.80
2024-02-03T13:21:23.527Z,2.05
2024-02-03T13:24:09.362Z,1.80
2024-02-03T13:26:55.048Z,1.80
2024-02-03T13:29:40.968Z,1.90
2024-02-03T13:32:26.610Z,1.98
2024-02-03T13:35:12.374Z,1.90
2024-02-03T13:37:58.407Z,1.70
2024-02-03T13:40:44.058Z,1.83
2024-02-03T13:43:30.848Z,2.00
2024-02-03T13:46:16.721Z,1.92
2024-02-03T13:49:03.606Z,1.80
2024-02-03T13:51:51.774Z,1.70
2024-02-03T13:54:37.383Z,1.85
2024-02-03T13:57:22.850Z,1.58
2024-02-03T14:00:09.212Z,1.88
2024-02-03T14:02:54.734Z,1.58
2024-02-03T14:05:40.448Z,1.60
2024-02-03T14:08:25.939Z,1.88
2024-02-03T14:11:12.992Z,1.90
2024-02-03T14:13:58.716Z,1.80
2024-02-03T14:16:45.186Z,1.90
2024-02-03T14:19:30.700Z,1.80
2024-02-03T14:22:16.423Z,2.13
2024-02-03T14:25:02.418Z,1.73
2024-02-03T14:27:48.023Z,1.88
2024-02-03T14:30:33.816Z,2.20
2024-02-03T14:33:21.188Z,1.60
2024-02-03T14:36:06.885Z,1.70
2024-02-03T14:38:52.567Z,1.85
2024-02-03T14:41:37.914Z,2.00
2024-02-03T14:44:25.039Z,1.90
2024-02-03T14:47:10.484Z,1.70
2024-02-03T14:49:59.123Z,2.05
2024-02-03T14:52:44.553Z,2.17
2024-02-03T14:55:30.025Z,2.38
2024-02-03T14:58:15.713Z,2.15
2024-02-03T15:01:01.741Z,2.40
2024-02-03T15:03:46.916Z,2.30
2024-02-03T15:06:32.625Z,2.28
2024-02-03T15:09:18.082Z,2.35
2024-02-03T15:12:03.786Z,2.47
2024-02-03T15:14:49.134Z,2.70
2024-02-03T15:17:34.709Z,2.60
2024-02-03T15:20:20.712Z,3.00
2024-02-03T15:23:06.127Z,2.85
2024-02-03T15:25:51.535Z,2.70
2024-02-03T15:28:37.275Z,2.60
2024-02-03T15:31:23.257Z,2.97
2024-02-03T15:34:09.338Z,2.67
2024-02-03T15:36:58.028Z,2.42
2024-02-03T15:39:43.444Z,2.70
2024-02-03T15:42:29.019Z,2.60
2024-02-03T15:45:14.578Z,2.53
2024-02-03T15:48:00.013Z,2.80
2024-02-03T15:50:45.668Z,2.67
2024-02-03T15:53:31.256Z,3.38
2024-02-03T15:56:17.074Z,3.25
2024-02-03T15:59:03.309Z,3.13
2024-02-03T16:01:48.816Z,3.30
2024-02-03T16:04:35.050Z,3.63
2024-02-03T16:07:20.618Z,3.63
2024-02-03T16:10:07.189Z,3.55
2024-02-03T16:12:52.680Z,3.90
2024-02-03T16:15:38.147Z,3.10
2024-02-03T16:18:24.174Z,3.55
2024-02-03T16:21:09.771Z,3.70
2024-02-03T16:23:56.063Z,3.85
2024-02-03T16:26:42.023Z,4.07
2024-02-03T16:29:27.703Z,3.97
2024-02-03T16:32:13.439Z,4.15
2024-02-03T16:34:59.225Z,3.47
2024-02-03T16:37:44.625Z,3.30
2024-02-03T16:40:30.400Z,3.25
2024-02-03T16:43:16.803Z,3.22
2024-02-03T16:46:02.496Z,3.17
2024-02-03T16:48:48.231Z,3.58
2024-02-03T16:51:33.722Z,3.55
2024-02-03T16:54:19.642Z,3.35
2024-02-03T16:57:07.313Z,3.45
2024-02-03T16:59:52.594Z,3.45
2024-02-03T17:02:38.421Z,3.03
2024-02-03T17:05:23.906Z,3.95
2024-02-03T17:08:10.671Z,3.30
2024-02-03T17:10:56.264Z,3.38
2024-02-03T17:13:41.616Z,3.15
2024-02-03T17:16:27.412Z,3.60
2024-02-03T17:19:13.340Z,4.95
2024-02-03T17:21:59.245Z,4.80
2024-02-03T17:24:47.370Z,5.07
2024-02-03T17:27:33.075Z,6.80
2024-02-03T17:30:19.058Z,11.52
2024-02-03T17:33:05.016Z,10.43
2024-02-03T17:35:50.751Z,10.77
2024-02-03T17:38:36.400Z,13.40
2024-02-03T17:41:21.895Z,14.52
2024-02-03T17:44:07.548Z,12.15
2024-02-03T17:46:53.082Z,10.60
2024-02-03T17:49:39.546Z,7.90
2024-02-03T17:52:25.409Z,9.35
2024-02-03T17:55:11.259Z,7.45
2024-02-03T17:57:58.184Z,7.32
2024-02-03T18:00:43.980Z,6.10
2024-02-03T18:03:29.779Z,5.82
2024-02-03T18:06:15.381Z,5.75
2024-02-03T18:09:00.936Z,6.82
2024-02-03T18:11:47.913Z,6.38
2024-02-03T18:14:34.264Z,6.38
2024-02-03T18:17:19.801Z,6.57
2024-02-03T18:20:05.756Z,6.57
2024-02-03T18:22:51.013Z,6.70
2024-02-03T18:25:36.617Z,7.28
2024-02-03T18:28:22.208Z,7.03
2024-02-03T18:31:08.159Z,6.50
2024-02-03T18:33:54.708Z,7.28
2024-02-03T18:36:40.656Z,6.72
2024-02-03T18:39:26.329Z,7.22
2024-02-03T18:42:11.560Z,6.70
2024-02-03T18:44:57.285Z,6.20
2024-02-03T18:47:42.956Z,6.43
2024-02-03T18:50:28.462Z,6.57
2024-02-03T18:53:14.087Z,6.07
2024-02-03T18:55:59.589Z,6.22
2024-02-03T18:58:45.405Z,6.18
2024-02-03T19:01:31.042Z,6.32
2024-02-03T19:04:20.287Z,6.00
2024-02-03T19:07:06.008Z,6.40
2024-02-03T19:09:51.536Z,6.30
2024-02-03T19:12:37.662Z,5.70
2024-02-03T19:15:23.826Z,6.25
2024-02-03T19:18:10.078Z,6.10
2024-02-03T19:20:56.063Z,5.43
2024-02-03T19:23:42.112Z,5.95
2024-02-03T19:26:27.478Z,5.55
2024-02-03T19:29:13.132Z,6.13
2024-02-03T19:31:58.661Z,5.20
2024-02-03T19:34:44.569Z,5.38
2024-02-03T19:37:30.002Z,5.93
2024-02-03T19:40:15.751Z,5.40
2024-02-03T19:43:01.263Z,5.60
2024-02-03T19:45:46.853Z,5.55
2024-02-03T19:48:34.194Z,5.70
2024-02-03T19:51:19.925Z,5.70
2024-02-03T19:54:05.586Z,6.03
2024-02-03T19:56:51.205Z,5.07
2024-02-03T19:59:36.715Z,5.70
2024-02-03T20:02:22.812Z,5.77
2024-02-03T20:05:09.884Z,5.77
2024-02-03T20:07:55.332Z,5.37
2024-02-03T20:10:40.930Z,5.73
2024-02-03T20:13:27.734Z,5.60
2024-02-03T20:16:13.331Z,5.57
2024-02-03T20:18:59.162Z,5.67
2024-02-03T20:21:44.693Z,6.00
2024-02-03T20:24:30.317Z,6.20
2024-02-03T20:27:16.427Z,6.27
2024-02-03T20:30:01.997Z,5.87
2024-02-03T20:32:47.578Z,5.77
2024-02-03T20:35:33.750Z,6.03
2024-02-03T20:38:19.677Z,7.60
2024-02-03T20:41:06.098Z,5.67
2024-02-03T20:43:51.976Z,6.47
2024-02-03T20:46:38.133Z,6.40
2024-02-03T20:49:26.716Z,6.10
2024-02-03T20:52:12.361Z,6.33
2024-02-03T20:54:58.042Z,6.23
2024-02-03T20:57:43.603Z,6.23
2024-02-03T21:00:29.281Z,6.07
2024-02-03T21:03:15.083Z,5.97
2024-02-03T21:06:01.026Z,5.87
2024-02-03T21:08:47.235Z,6.60
2024-02-03T21:11:38.205Z,6.10
2024-02-03T21:14:23.697Z,5.53
2024-02-03T21:17:09.577Z,5.67
2024-02-03T21:19:55.099Z,5.50
2024-02-03T21:22:41.016Z,6.07
2024-02-03T21:25:26.466Z,5.30
2024-02-03T21:28:15.317Z,5.17
2024-02-03T21:31:00.985Z,5.73
2024-02-03T21:33:46.494Z,5.60
2024-02-03T21:36:32.504Z,5.47
2024-02-03T21:39:17.881Z,5.20
2024-02-03T21:42:03.464Z,6.07
2024-02-03T21:44:48.987Z,6.30
2024-02-03T21:47:34.398Z,5.37
2024-02-03T21:50:20.099Z,5.67
2024-02-03T21:53:06.378Z,6.17
2024-02-03T21:55:52.033Z,5.80
2024-02-03T21:58:37.365Z,5.80
2024-02-03T22:01:23.214Z,5.33
2024-02-03T22:04:10.141Z,6.00
2024-02-03T22:06:55.833Z,5.43
2024-02-03T22:09:41.460Z,6.00
2024-02-03T22:12:27.094Z,5.43
2024-02-03T22:15:12.709Z,5.63
2024-02-03T22:17:59.318Z,5.40
2024-02-03T22:20:45.715Z,5.20
2024-02-03T22:23:31.622Z,5.23
2024-02-03T22:26:17.475Z,4.90
2024-02-03T22:29:02.936Z,5.10
2024-02-03T22:31:50.736Z,5.30
2024-02-03T22:34:37.097Z,5.07
2024-02-03T22:37:22.715Z,4.20
2024-02-03T22:40:08.354Z,4.80
2024-02-03T22:42:53.942Z,5.00
2024-02-03T22:45:39.678Z,5.80
2024-02-03T22:48:25.605Z,5.13
2024-02-03T22:51:10.913Z,5.47
2024-02-03T22:53:56.628Z,5.70
2024-02-03T22:56:44.798Z,5.20
2024-02-03T22:59:31.303Z,5.50
2024-02-03T23:02:17.014Z,5.33
2024-02-03T23:05:02.558Z,4.80
2024-02-03T23:07:47.773Z,5.30
2024-02-03T23:10:33.595Z,5.20
2024-02-03T23:13:19.245Z,4.87
2024-02-03T23:16:06.058Z,5.10
2024-02-03T23:18:52.126Z,4.63
2024-02-03T23:21:37.876Z,4.40
2024-02-03T23:24:23.358Z,4.70
2024-02-03T23:27:08.838Z,4.80
2024-02-03T23:29:54.916Z,5.40
2024-02-03T23:32:41.260Z,5.33
2024-02-03T23:35:26.795Z,5.60
2024-02-03T23:38:12.385Z,5.17
2024-02-03T23:40:57.936Z,5.30
2024-02-03T23:43:44.428Z,5.20
2024-02-03T23:46:30.210Z,5.00
2024-02-03T23:49:15.652Z,4.23
2024-02-03T23:52:01.270Z,4.87
2024-02-03T23:54:46.848Z,5.40
2024-02-03T23:57:32.625Z,4.57
